Tiempo atmosférico en la estación meteorológica de Sopeira, Huesca (760 m.)



Fecha
DESCASC
Temp. máxima en grados centígrados (hora)
DESCASC
Temp. mínima en grados centígrados (hora)
DESCASC
Temp. media en grados centígrados
DESCASC
Racha de viento máxima en m/sg (hora)
DESCASC
Velocidad máxima media en intervalos de 10 minutos(hora)
DESCASC
Precipitaciones diarias en mm
DESCASC
Precipitaciones de 00:00 a 06:00 en mm
DESCASC
Precipitaciones de 06:00 a 12:00 en mm
DESCASC
Precipitaciones de 12:00 a 18:00 en mm
DESCASC
Precipitaciones de 18:00 a 24:00 en mm
DESCASC
13-01-2021 5.9 (15:40) -3 (03:50) 1.5 13.89 (09:50) 9.17 (09:50) 0 0 0 0 0
12-01-2021 2.5 (15:40) -5.9 (05:30) -1.7 14.17 (08:40) 9.17 (09:40) 0 0 0 0 0
11-01-2021 -- (--) -- (--) -- -- (--) -- (--) -- -- -- 6.4 0
10-01-2021 -- (--) -- (--) -- -- (--) -- (--) -- -- -- -- --
09-01-2021 -- (--) -- (--) -- -- (--) -- (--) -- 0.8 1.2 4.2 --
08-01-2021 4 (13:50) -7.8 (-00:0) -1.9 14.72 (05:10) 10.28 (05:10) 0 0 0 0 0
07-01-2021 0.2 (15:10) -5.8 (-00:0) -2.8 13.33 (02:00) 9.44 (06:10) 0 0 0 0 0
06-01-2021 5.5 (15:00) -6.8 (-00:0) -0.7 12.5 (08:20) 8.61 (08:30) 0 0 0 0 0
05-01-2021 4.6 (15:00) -5.8 (-00:0) -0.6 11.67 (23:59) 8.33 (09:20) 0 0 0 0 0
04-01-2021 3.5 (13:20) -4.8 (-00:0) -0.7 10.28 (01:50) 7.5 (02:00) 0 0 0 0 0
03-01-2021 7.3 (14:00) -3.4 (-00:0) 2 17.5 (03:50) 7.78 (02:20) 0 0 0 0 0
02-01-2021 5.4 (14:40) -4.3 (-00:0) 0.5 12.5 (14:30) 7.5 (04:30) 0 0 0 0 0
01-01-2021 8.1 (14:00) -0.5 (-00:0) 3.8 9.72 (09:20) 6.67 (09:30) 0.2 0.2 0 0 0
31-12-2020 5.7 (15:10) -2.4 (-00:0) 1.6 10.83 (08:00) 8.61 (01:30) 1 0 0 0 1
30-12-2020 7.2 (15:20) -2.5 (-00:0) 2.3 8.61 (06:40) 6.67 (23:50) 0 0 0 0 0
29-12-2020 7.1 (13:40) -0.3 (00:00) 3.4 10.83 (14:00) 5 (14:00) 0 0 0 0 0
28-12-2020 4.1 (13:50) -0.1 (00:00) 2 8.33 (14:50) 3.89 (15:40) 7.6 4.6 0 1 2
27-12-2020 1.4 (16:00) -3.2 (-00:0) -0.9 13.33 (03:50) 9.17 (01:10) 0 0 0 0 0
26-12-2020 7 (12:40) -1.9 (-00:0) 2.6 26.11 (04:00) 12.5 (03:20) 0 0 0 0 0
25-12-2020 3.8 (12:10) 0.5 (00:00) 2.1 21.39 (08:20) 8.89 (11:40) 0 0 0 0 0
24-12-2020 7.2 (15:20) 2.6 (00:00) 4.9 8.89 (23:10) 5.56 (23:00) 0 0 0 0 0
23-12-2020 14.5 (15:10) 4.6 (00:00) 9.5 13.61 (08:10) 10 (04:40) 0 0 0 0 0
22-12-2020 14 (15:30) 3.4 (00:00) 8.7 13.89 (09:20) 10.83 (06:50) 0 0 0 0 0
21-12-2020 10 (14:20) 2.6 (00:00) 6.3 12.5 (23:00) 7.5 (21:20) 0 0 0 0 0
20-12-2020 9.8 (15:00) 5.7 (00:00) 7.8 8.33 (23:59) 5.28 (23:20) 3.8 3.8 0 0 0
19-12-2020 10.8 (14:00) 4 (00:00) 7.4 11.39 (05:20) 8.61 (05:10) 0 0 0 0 0
18-12-2020 13 (15:20) 2 (00:00) 7.5 13.06 (06:10) 10 (03:40) 0 0 0 0 0

Gráficas

Temp. máximas Temp. mínimas Temp. medias Precipitaciones Rachas de viento máximas Velocidades máximas media en intervalos de 10 minutos

Datos horarios

Fecha y hora oficial Temperatura (ºC) Velocidad del viento (km/h) Dirección del viento Racha (km/h) Dirección de racha Precipitación (mm) Presión (hPa) Tendencia (hPa) Humedad (%)
2021-01-16 23:00:00 2 11 Noroeste 21 Noroeste 0 -- -- 74
2021-01-16 22:00:00 2 6 Noroeste 16 Noroeste 0 -- -- 75
2021-01-16 21:00:00 2.8 12 Noroeste 17 Noroeste 0 -- -- 71
2021-01-16 20:00:00 2.4 0 Calma 7 Sudoeste 0 -- -- 66
2021-01-16 19:00:00 3.1 3 Sudoeste 11 Noroeste 0 -- -- 64
2021-01-16 18:00:00 4.4 2 Noroeste 11 Noroeste 0 -- -- 56
2021-01-16 17:00:00 5.9 0 Calma 12 Sudoeste 0 -- -- 48
2021-01-16 16:00:00 6.9 5 Sur 12 Sur 0 -- -- 42
2021-01-16 15:00:00 8.2 8 Sur 13 Sur 0 -- -- 37
2021-01-16 14:00:00 7 4 Sur 11 Sudeste 0 -- -- 44
2021-01-16 13:00:00 4.6 8 Sur 13 Sur 0 -- -- 50
2021-01-16 12:00:00 3.4 4 Sur 10 Sudoeste 0 -- -- 54
2021-01-16 11:00:00 1 3 Sudoeste 31 Noroeste 0 -- -- 61
2021-01-16 10:00:00 0.6 22 Noroeste 40 Noroeste 0 -- -- 55
2021-01-16 09:00:00 0 16 Noroeste 38 Noroeste 0 -- -- 61
2021-01-16 08:00:00 -0.1 17 Noroeste 30 Noroeste 0 -- -- 63
2021-01-16 07:00:00 -1 5 Oeste 18 Noroeste 0 -- -- 69
2021-01-16 06:00:00 -1.5 3 Sur 9 Sur 0 -- -- 67
2021-01-16 05:00:00 -1 4 Sur 9 Sur 0 -- -- 66
2021-01-16 04:00:00 0.4 3 Sur 8 Este 0 -- -- 60
2021-01-16 03:00:00 1.5 6 Sudoeste 35 Oeste 0 -- -- 54
2021-01-16 02:00:00 7.7 15 Noroeste 54 Noroeste 0 -- -- 27
2021-01-16 01:00:00 7.5 14 Noroeste 58 Noroeste 0 -- -- 30
2021-01-16 00:00:00 7.4 26 Noroeste 65 Noroeste 0 -- -- 36
2021-01-15 23:00:00 7.8 27 Norte 59 Noroeste 0 -- -- 35
2021-01-15 22:00:00 7.8 23 Oeste 50 Noroeste 0 -- -- 34
2021-01-15 21:00:00 7.6 18 Oeste 43 Noroeste 0 -- -- 33
2021-01-15 20:00:00 6 6 Noroeste 24 Oeste 0 -- -- 33
2021-01-15 19:00:00 7.7 10 Oeste 30 Noroeste 0 -- -- 30
2021-01-15 18:00:00 8 14 Oeste 35 Noroeste 0 -- -- 33
2021-01-15 17:00:00 9 15 Noroeste 48 Norte 0 -- -- 30
2021-01-15 16:00:00 7.1 2 Sur 11 Sudoeste 0 -- -- 57
2021-01-15 15:00:00 6.3 4 Sur 8 Sur 0 -- -- 58
2021-01-15 14:00:00 4.8 3 Sudeste 14 Sudoeste 0 -- -- 62
2021-01-15 13:00:00 3.2 4 Sur 17 Sur 0 -- -- 66
2021-01-15 12:00:00 2.1 0 Calma 9 Sudeste 0 -- -- 75
2021-01-15 11:00:00 -1.2 4 Sur 9 Sudeste 0 -- -- 92
2021-01-15 10:00:00 -3.9 3 Sudoeste 9 Sudeste 0 -- -- 92
2021-01-15 09:00:00 -4.4 0 Calma 11 Oeste 0 -- -- 94
2021-01-15 08:00:00 -4.6 2 Sur 9 Sudoeste 0 -- -- 93
2021-01-15 07:00:00 -4.8 0 Calma 14 Sur 0 -- -- 93
2021-01-15 06:00:00 -3.8 0 Calma 5 Sur 0 -- -- 92
2021-01-15 05:00:00 -3.1 0 Calma 8 Sur 0 -- -- 92
2021-01-15 04:00:00 -1.9 2 Sudoeste 16 Noroeste 0 -- -- 92
2021-01-15 03:00:00 -2.4 2 Sudoeste 13 Noroeste 0 -- -- 92
2021-01-15 02:00:00 -2.4 0 Calma 8 Noroeste 0 -- -- 90
2021-01-15 01:00:00 -1.8 3 Sudoeste 16 Noroeste 0 -- -- 89
2021-01-15 00:00:00 -1 4 Oeste 17 Noroeste 0 -- -- 88
2021-01-14 23:00:00 -0.7 3 Norte 16 Noroeste 0 -- -- 86
2021-01-14 22:00:00 0.1 4 Norte 15 Noroeste 0 -- -- 87
2021-01-14 21:00:00 -0.2 0 Calma 7 Noroeste 0 -- -- 81
2021-01-14 20:00:00 1.1 2 Noroeste 21 Noroeste 0 -- -- 74
2021-01-14 19:00:00 2.6 15 Noroeste 28 Noroeste 0 -- -- 73
2021-01-14 18:00:00 2.3 3 Sudoeste 6 Este 0 -- -- 69
2021-01-14 17:00:00 3.8 0 Calma 7 Sudoeste 0 -- -- 64
2021-01-14 16:00:00 5.4 4 Sur 9 Sur 0 -- -- 58
2021-01-14 15:00:00 4.9 3 Sur 6 Sudoeste 0 -- -- 59
2021-01-14 14:00:00 2.6 3 Sudeste 13 Sur 0 -- -- 66
2021-01-14 13:00:00 3.1 3 Sur 29 Noroeste 0 -- -- 63
2021-01-14 12:00:00 1.2 15 Noroeste 39 Noroeste 0 -- -- 67
2021-01-14 11:00:00 -0.4 22 Noroeste 50 Noroeste 0 -- -- 69
2021-01-14 10:00:00 -2.3 31 Noroeste 52 Noroeste 0 -- -- 76
2021-01-14 09:00:00 -2.8 29 Noroeste 52 Noroeste 0 -- -- 78
2021-01-14 08:00:00 -2.6 31 Noroeste 49 Noroeste 0 -- -- 79
2021-01-14 07:00:00 -2.2 24 Noroeste 45 Noroeste 0 -- -- 79
2021-01-14 06:00:00 -2 27 Noroeste 44 Noroeste 0 -- -- 81
2021-01-14 05:00:00 -1.9 22 Noroeste 47 Noroeste 0 -- -- 81
2021-01-14 04:00:00 -1.5 23 Noroeste 45 Noroeste 0 -- -- 81
2021-01-14 03:00:00 -1.1 19 Noroeste 42 Noroeste 0 -- -- 82
2021-01-14 02:00:00 -0.8 18 Noroeste 44 Noroeste 0 -- -- 83
2021-01-14 01:00:00 -0.3 18 Noroeste 41 Noroeste 0 -- -- 82
2021-01-14 00:00:00 0.2 28 Noroeste 48 Noroeste 0 -- -- 83
2021-01-13 23:00:00 0.6 24 Noroeste 42 Noroeste 0 -- -- 84
2021-01-13 22:00:00 1.1 24 Noroeste 39 Noroeste 0 -- -- 83
2021-01-13 21:00:00 1.5 21 Noroeste 33 Noroeste 0 -- -- 84
2021-01-13 20:00:00 1.7 15 Noroeste 23 Noroeste 0 -- -- 86
2021-01-13 19:00:00 2.2 10 Noroeste 17 Noroeste 0 -- -- 83
2021-01-13 18:00:00 2.8 0 Calma 8 Sudoeste 0 -- -- 76
2021-01-13 17:00:00 4 3 Sur 9 Sudoeste 0 -- -- 72
2021-01-13 16:00:00 5.7 4 Sur 11 Sur 0 -- -- 65
2021-01-13 15:00:00 5 5 Sur 13 Sur 0 -- -- 67
2021-01-13 14:00:00 4.3 9 Sur 15 Sur 0 -- -- 67
2021-01-13 13:00:00 4.3 0 Calma 5 Sur 0 -- -- 70
2021-01-13 12:00:00 1.1 2 Sudeste 33 Noroeste 0 -- -- 77
2021-01-13 11:00:00 1.5 24 Noroeste 48 Noroeste 0 -- -- 75
2021-01-13 10:00:00 0 28 Noroeste 50 Noroeste 0 -- -- 82
2021-01-13 09:00:00 -0.4 31 Noroeste 45 Noroeste 0 -- -- 83
2021-01-13 08:00:00 -0.1 27 Noroeste 46 Noroeste 0 -- -- 84
2021-01-13 07:00:00 0 27 Noroeste 41 Noroeste 0 -- -- 85
2021-01-13 06:00:00 0.2 19 Noroeste 33 Noroeste 0 -- -- 85
2021-01-13 05:00:00 0 16 Noroeste 37 Noroeste 0 -- -- 89
2021-01-13 04:00:00 -2.2 9 Noroeste 19 Norte 0 -- -- 94
2021-01-13 03:00:00 -2.4 0 Calma 4 Nordeste 0 -- -- 93
2021-01-13 02:00:00 -2.4 2 Oeste 8 Sur 0 -- -- 91
2021-01-13 01:00:00 -2.3 3 Sudoeste 8 Sudoeste 0 -- -- 90
2021-01-13 00:00:00 -1.7 2 Sudoeste 6 Sudoeste 0 -- -- 88
2021-01-12 23:00:00 -0.1 4 Nordeste 24 Noroeste 0 -- -- 86
2021-01-12 22:00:00 0.5 13 Noroeste 24 Noroeste 0 -- -- 87
2021-01-12 21:00:00 -1.2 6 Norte 17 Noroeste 0 -- -- 91
2021-01-12 20:00:00 -0.5 4 Oeste 9 Noroeste 0 -- -- 86
2021-01-12 19:00:00 -0.3 0 Calma 5 Sudoeste 0 -- -- 82
2021-01-12 18:00:00 0.7 0 Calma 7 Sur 0 -- -- 75
2021-01-12 17:00:00 1.5 4 Sur 12 Sudoeste 0 -- -- 71
2021-01-12 16:00:00 2.5 6 Sur 13 Sur 0 -- -- 66
2021-01-12 15:00:00 2.1 5 Sur 14 Sur 0 -- -- 70
2021-01-12 14:00:00 1.8 4 Sur 8 Sur 0 -- -- 70
2021-01-12 13:00:00 0.1 0 Calma 6 Sudeste 0 -- -- 73
2021-01-12 12:00:00 -1.4 0 Calma 37 Noroeste 0 -- -- 77
2021-01-12 11:00:00 -1.6 22 Noroeste 45 Noroeste 0 -- -- 75
2021-01-12 10:00:00 -3.7 27 Noroeste 48 Noroeste 0 -- -- 81
2021-01-12 09:00:00 -3.9 30 Noroeste 51 Noroeste 0 -- -- 81
2021-01-12 08:00:00 -3.8 26 Noroeste 41 Noroeste 0 -- -- 82
2021-01-12 07:00:00 -3.7 21 Noroeste 34 Noroeste 0 -- -- 83
2021-01-12 06:00:00 -4.1 20 Noroeste 32 Noroeste 0 -- -- 87
2021-01-12 05:00:00 -5.1 9 Norte 34 Noroeste 0 -- -- 83
2021-01-12 04:00:00 -3.7 19 Noroeste 35 Noroeste 0 -- -- 81
2021-01-12 03:00:00 -3.4 15 Noroeste 33 Noroeste 0 -- -- 81
2021-01-12 02:00:00 -3.3 19 Noroeste 32 Noroeste 0 -- -- 80
2021-01-12 01:00:00 -2.9 15 Noroeste 47 Noroeste 0 -- -- 80
2021-01-12 00:00:00 -2.4 21 Noroeste 39 Noroeste 0 -- -- 80
2021-01-11 23:00:00 -2.2 21 Noroeste 33 Noroeste 0 -- -- 85
2021-01-11 22:00:00 -3.5 0 Calma 5 Norte 0 -- -- 93
2021-01-11 21:00:00 -3.1 0 Calma 15 Noroeste 0 -- -- 92
2021-01-11 20:00:00 -2.4 4 Norte 9 Norte 0 -- -- 91
2021-01-11 19:00:00 -1.4 3 Oeste 13 Noroeste 0 -- -- 89
2021-01-11 18:00:00 -0.4 0 Calma 4 Sudoeste 0 -- -- 86
2021-01-11 17:00:00 0.7 4 Sudoeste 6 Sur 0 -- -- 82
2021-01-11 16:00:00 2.1 4 Sudeste 10 Sur 0.2 -- -- 77
2021-01-11 15:00:00 1.8 7 Sur 12 Sudoeste 1 -- -- 76
2021-01-11 14:00:00 1 6 Sur 10 Sudeste 1.2 -- -- 80
2021-01-11 13:00:00 0.2 4 Este 9 Sudeste 4 -- -- 81
2021-01-11 12:00:00 0.3 3 Sudeste 7 Este 5 -- -- 81
2021-01-11 11:00:00 -1.2 2 Noroeste 15 Noroeste 2.2 -- -- 86
2021-01-11 10:00:00 -2.1 0 Calma -- -- -- -- -- 86
2021-01-11 09:00:00 -- -- -- -- -- -- -- -- --
2021-01-11 08:00:00 -- 0 Calma -- -- -- -- -- --
2021-01-11 07:00:00 -1.1 0 Calma 0 Calma -- -- -- 86
2021-01-11 06:00:00 -- -- -- -- -- -- -- -- --
2021-01-11 05:00:00 -- -- -- -- -- -- -- -- --
2021-01-11 04:00:00 -- -- -- -- -- -- -- -- --
2021-01-11 03:00:00 -- -- -- -- -- -- -- -- --
2021-01-11 02:00:00 -- -- -- -- -- -- -- -- --
2021-01-11 01:00:00 -- -- -- -- -- -- -- -- --
2021-01-11 00:00:00 -- 0 Calma 46 Sudoeste -- -- -- --
2021-01-10 23:00:00 0.7 0 Calma 54 Noroeste -- -- -- 98
2021-01-10 22:00:00 -- 2 Sudoeste -- -- -- -- -- --
2021-01-10 21:00:00 0.8 0 Calma -- -- -- -- -- 98
2021-01-10 20:00:00 -- -- -- -- -- -- -- -- --
2021-01-10 19:00:00 -- -- -- -- -- -- -- -- --
2021-01-10 18:00:00 -- -- -- -- -- -- -- -- --
2021-01-10 17:00:00 1 5 Sudoeste 7 Sur 1.4 -- -- 98
2021-01-10 16:00:00 1.3 5 Sur 7 Sur 3 -- -- 98
2021-01-10 15:00:00 1.3 5 Sur 8 Sur 4.6 -- -- 97
2021-01-10 14:00:00 1.3 2 Sur 19 Sur -- -- -- 98
2021-01-10 13:00:00 -- -- -- -- -- -- -- -- --
2021-01-10 12:00:00 0.9 0 Calma -- -- -- -- -- 98
2021-01-10 11:00:00 -- -- -- -- -- -- -- -- --
2021-01-10 10:00:00 -- -- -- -- -- -- -- -- --
2021-01-10 09:00:00 -- -- -- -- -- -- -- -- --
2021-01-10 08:00:00 -- -- -- -- -- -- -- -- --
2021-01-10 07:00:00 -- -- -- -- -- -- -- -- --
2021-01-10 06:00:00 -- -- -- -- -- -- -- -- --
2021-01-10 05:00:00 -- -- -- -- -- -- -- -- --
2021-01-10 04:00:00 -- -- -- -- -- -- -- -- --
2021-01-10 03:00:00 -- -- -- -- -- -- -- -- --
2021-01-10 02:00:00 -- -- -- -- -- -- -- -- --
2021-01-10 01:00:00 -- -- -- -- -- -- -- -- --
2021-01-10 00:00:00 -- -- -- -- -- -- -- -- --
2021-01-09 23:00:00 -- -- -- -- -- -- -- -- --
2021-01-09 22:00:00 -- -- -- -- -- -- -- -- --
2021-01-09 21:00:00 -- -- -- -- -- -- -- -- --
2021-01-09 20:00:00 0.2 0 Calma 16 Noroeste 4.4 -- -- 96
2021-01-09 19:00:00 0.2 0 Calma 7 Sudoeste 1.8 -- -- 96
2021-01-09 18:00:00 0.3 6 Sudoeste 16 Sudoeste 0.8 -- -- 96
2021-01-09 17:00:00 0.5 10 Sudoeste 19 Noroeste 0 -- -- 95
2021-01-09 16:00:00 1.3 13 Noroeste 25 Noroeste 1.6 -- -- 95
2021-01-09 15:00:00 0.2 5 Sur 21 Noroeste 0.4 -- -- 93
2021-01-09 14:00:00 1.3 13 Noroeste 33 Noroeste 0.6 -- -- 91
2021-01-09 13:00:00 1 22 Noroeste 31 Norte 0.8 -- -- 91
2021-01-09 12:00:00 0.8 22 Norte 36 Noroeste 0.2 -- -- 89
2021-01-09 11:00:00 0.6 25 Norte 35 Noroeste 0 -- -- 88
2021-01-09 10:00:00 0.3 26 Norte 35 Noroeste 0.2 -- -- 88
2021-01-09 09:00:00 -0.1 18 Norte 34 Noroeste 0 -- -- 88
2021-01-09 08:00:00 -0.3 18 Noroeste 30 Noroeste 0.2 -- -- 89
2021-01-09 07:00:00 -0.6 17 Noroeste 31 Noroeste 0.6 -- -- 91
2021-01-09 06:00:00 -1.8 6 Sudoeste 11 Noroeste 0.6 -- -- 90
2021-01-09 05:00:00 -1.8 2 Sudoeste 13 Sudoeste 0.2 -- -- 85
2021-01-09 04:00:00 0.6 9 Noroeste 28 Noroeste 0 -- -- 75
2021-01-09 03:00:00 1 17 Norte 26 Noroeste 0 -- -- 68
2021-01-09 02:00:00 0 0 Calma 16 Noroeste 0 -- -- 68
2021-01-09 01:00:00 0.6 13 Noroeste 21 Noroeste 0 -- -- 66
2021-01-09 00:00:00 -0.7 4 Sudoeste 8 Sur 0 -- -- 72
2021-01-08 23:00:00 -0.5 0 Calma 9 Sur 0 -- -- 70
2021-01-08 22:00:00 -0.4 3 Sudeste 10 Sur 0 -- -- 66
2021-01-08 21:00:00 0 2 Sur 4 Sudoeste 0 -- -- 64
2021-01-08 20:00:00 0.5 0 Calma 5 Sur 0 -- -- 58
2021-01-08 19:00:00 1.1 3 Sur 5 Sur 0 -- -- 56
2021-01-08 18:00:00 1.8 0 Calma 9 Sudoeste 0 -- -- 50
2021-01-08 17:00:00 2.9 7 Sudoeste 10 Sudoeste 0 -- -- 41
2021-01-08 16:00:00 3.7 6 Sur 10 Sur 0 -- -- 38
2021-01-08 15:00:00 3.7 3 Sudeste 13 Sur 0 -- -- 38
2021-01-08 14:00:00 3.9 11 Sur 15 Noroeste 0 -- -- 37
2021-01-08 13:00:00 0.6 12 Noroeste 24 Noroeste 0 -- -- 43
2021-01-08 12:00:00 -2 12 Norte 40 Noroeste 0 -- -- 49
2021-01-08 11:00:00 -4.7 24 Noroeste 49 Noroeste 0 -- -- 62
2021-01-08 10:00:00 -7.2 28 Noroeste 48 Noroeste 0 -- -- 73
2021-01-08 09:00:00 -7.7 32 Noroeste 53 Noroeste 0 -- -- 76
2021-01-08 08:00:00 -7.7 35 Noroeste 52 Noroeste 0 -- -- 78
2021-01-08 07:00:00 -7.1 34 Noroeste 49 Noroeste 0 -- -- 75
2021-01-08 06:00:00 -6.5 33 Noroeste 53 Noroeste 0 -- -- 73
2021-01-08 05:00:00 -6.1 36 Noroeste 51 Noroeste 0 -- -- 74
2021-01-08 04:00:00 -5.5 32 Noroeste 47 Noroeste 0 -- -- 76
2021-01-08 03:00:00 -4.9 30 Noroeste 44 Noroeste 0 -- -- 75
2021-01-08 02:00:00 -4 28 Noroeste 42 Noroeste 0 -- -- 74
2021-01-08 01:00:00 -3.1 23 Noroeste 35 Noroeste 0 -- -- 75
2021-01-08 00:00:00 -2.1 17 Noroeste 32 Noroeste 0 -- -- 72
2021-01-07 23:00:00 -1.5 13 Noroeste 23 Noroeste 0 -- -- 76
2021-01-07 22:00:00 -2.1 3 Oeste 5 Noroeste 0 -- -- 78
2021-01-07 21:00:00 -1.8 0 Calma 4 Norte 0 -- -- 76
2021-01-07 20:00:00 -1.6 3 Sur 8 Sur 0 -- -- 74
2021-01-07 19:00:00 -1.1 2 Sur 6 Sudoeste 0 -- -- 71
2021-01-07 18:00:00 -0.8 0 Calma 4 Sudoeste 0 -- -- 70
2021-01-07 17:00:00 -0.5 3 Sur 8 Sudoeste 0 -- -- 67
2021-01-07 16:00:00 -0.2 5 Sur 12 Sur 0 -- -- 64
2021-01-07 15:00:00 0.1 3 Norte 25 Noroeste 0 -- -- 60
2021-01-07 14:00:00 -0.8 13 Noroeste 24 Noroeste 0 -- -- 60
2021-01-07 13:00:00 -2 20 Noroeste 29 Noroeste 0 -- -- 67
2021-01-07 12:00:00 -2.7 19 Noroeste 36 Noroeste 0 -- -- 68
2021-01-07 11:00:00 -4 27 Noroeste 40 Noroeste 0 -- -- 72
2021-01-07 10:00:00 -5.1 31 Noroeste 41 Noroeste 0 -- -- 78
2021-01-07 09:00:00 -5.7 30 Noroeste 41 Noroeste 0 -- -- 82
2021-01-07 08:00:00 -5.8 31 Noroeste 45 Noroeste 0 -- -- 81
2021-01-07 07:00:00 -5.8 33 Noroeste 42 Noroeste 0 -- -- 81
2021-01-07 06:00:00 -5.8 32 Noroeste 41 Noroeste 0 -- -- 82
2021-01-07 05:00:00 -5.4 23 Noroeste 40 Noroeste 0 -- -- 81
2021-01-07 04:00:00 -5.1 22 Noroeste 37 Noroeste 0 -- -- 81
2021-01-07 03:00:00 -4.8 30 Noroeste 44 Noroeste 0 -- -- 80
2021-01-07 02:00:00 -4.2 28 Noroeste 48 Noroeste 0 -- -- 79
2021-01-07 01:00:00 -3.8 26 Noroeste 39 Noroeste 0 -- -- 79
2021-01-07 00:00:00 -3.3 23 Noroeste 33 Noroeste 0 -- -- 79
2021-01-06 23:00:00 -2.7 20 Noroeste 30 Noroeste 0 -- -- 77
2021-01-06 22:00:00 -2 18 Noroeste 28 Noroeste 0 -- -- 76
2021-01-06 21:00:00 -1.4 12 Noroeste 18 Noroeste 0 -- -- 76
2021-01-06 20:00:00 -1.1 0 Calma 9 Noroeste 0 -- -- 74
2021-01-06 19:00:00 -0.1 2 Sudeste 9 Sudoeste 0 -- -- 68
2021-01-06 18:00:00 1.6 6 Sudeste 19 Sur 0 -- -- 63
2021-01-06 17:00:00 3.4 14 Sur 20 Sur 0 -- -- 57
2021-01-06 16:00:00 5.2 9 Sur 18 Sudoeste 0 -- -- 48
2021-01-06 15:00:00 5.5 9 Sur 17 Sur 0 -- -- 45
2021-01-06 14:00:00 4.6 4 Sudeste 8 Sudeste 0 -- -- 47
2021-01-06 13:00:00 1.5 3 Nordeste 23 Noroeste 0 -- -- 54
2021-01-06 12:00:00 -1.6 14 Noroeste 30 Noroeste 0 -- -- 62
2021-01-06 11:00:00 -4.5 20 Noroeste 36 Noroeste 0 -- -- 73
2021-01-06 10:00:00 -6.4 24 Noroeste 43 Noroeste 0 -- -- 80
2021-01-06 09:00:00 -6.8 28 Noroeste 45 Noroeste 0 -- -- 81
2021-01-06 08:00:00 -6.6 31 Noroeste 44 Noroeste 0 -- -- 81
2021-01-06 07:00:00 -6.4 28 Noroeste 42 Noroeste 0 -- -- 83
2021-01-06 06:00:00 -6 25 Noroeste 43 Noroeste 0 -- -- 82
2021-01-06 05:00:00 -5.5 22 Noroeste 39 Noroeste 0 -- -- 80
2021-01-06 04:00:00 -5.4 29 Noroeste 39 Noroeste 0 -- -- 82
2021-01-06 03:00:00 -4.9 27 Noroeste 39 Noroeste 0 -- -- 80
2021-01-06 02:00:00 -4.4 24 Noroeste 42 Noroeste 0 -- -- 80
2021-01-06 01:00:00 -3.9 30 Noroeste 43 Noroeste 0 -- -- 77
2021-01-06 00:00:00 -3.4 29 Noroeste 42 Noroeste 0 -- -- 79
2021-01-05 23:00:00 -2.5 24 Noroeste 34 Noroeste 0 -- -- 76
2021-01-05 22:00:00 -2.1 23 Noroeste 31 Noroeste 0 -- -- 79
2021-01-05 21:00:00 -1.5 16 Noroeste 24 Noroeste 0 -- -- 79
2021-01-05 20:00:00 -1.2 4 Norte 9 Noroeste 0 -- -- 78
2021-01-05 19:00:00 -0.2 0 Calma 4 Sur 0 -- -- 71
2021-01-05 18:00:00 1 0 Calma 15 Sur 0 -- -- 68
2021-01-05 17:00:00 2.6 13 Sur 17 Sur 0 -- -- 58
2021-01-05 16:00:00 3.9 10 Sur 17 Sur 0 -- -- 54
2021-01-05 15:00:00 4.6 7 Sudeste 14 Sur 0 -- -- 54
2021-01-05 14:00:00 3.5 7 Este 15 Sudoeste 0 -- -- 58
2021-01-05 13:00:00 1.8 4 Sudeste 10 Noroeste 0 -- -- 60
2021-01-05 12:00:00 -1.6 7 Noroeste 22 Noroeste 0 -- -- 69
2021-01-05 11:00:00 -3.6 14 Noroeste 36 Noroeste 0 -- -- 78
2021-01-05 10:00:00 -5.6 23 Noroeste 40 Noroeste 0 -- -- 82
2021-01-05 09:00:00 -5.7 27 Noroeste 37 Noroeste 0 -- -- 83
2021-01-05 08:00:00 -5.4 20 Noroeste 34 Noroeste 0 -- -- 84
2021-01-05 07:00:00 -5.1 26 Noroeste 37 Noroeste 0 -- -- 84
2021-01-05 06:00:00 -4.9 26 Noroeste 39 Noroeste 0 -- -- 83
2021-01-05 05:00:00 -4.5 20 Noroeste 36 Noroeste 0 -- -- 83
2021-01-05 04:00:00 -3.8 21 Noroeste 33 Noroeste 0 -- -- 83
2021-01-05 03:00:00 -3.4 20 Noroeste 32 Noroeste 0 -- -- 83
2021-01-05 02:00:00 -2.8 17 Noroeste 32 Noroeste 0 -- -- 82
2021-01-05 01:00:00 -2.1 21 Noroeste 27 Noroeste 0 -- -- 80
2021-01-05 00:00:00 -1.7 17 Noroeste 26 Noroeste 0 -- -- 80
2021-01-04 23:00:00 -1.2 16 Noroeste 21 Noroeste 0 -- -- 82
2021-01-04 22:00:00 -1.5 3 Noroeste 6 Noroeste 0 -- -- 84
2021-01-04 21:00:00 -0.8 0 Calma 5 Sudoeste 0 -- -- 80
2021-01-04 20:00:00 0 0 Calma 10 Sudoeste 0 -- -- 76
2021-01-04 19:00:00 0.2 3 Sudoeste 6 Sudoeste 0 -- -- 76
2021-01-04 18:00:00 0.7 4 Sur 14 Sur 0 -- -- 73
2021-01-04 17:00:00 1.7 9 Sur 20 Sur 0 -- -- 70
2021-01-04 16:00:00 2.8 5 Sudeste 19 Sur 0 -- -- 66
2021-01-04 15:00:00 2.6 7 Sur 24 Sur 0 -- -- 64
2021-01-04 14:00:00 2.8 9 Sudeste 18 Sur 0 -- -- 61
2021-01-04 13:00:00 2.3 6 Sudeste 11 Este 0 -- -- 63
2021-01-04 12:00:00 -0.4 8 Noroeste 27 Noroeste 0 -- -- 62
2021-01-04 11:00:00 -2.8 17 Noroeste 34 Noroeste 0 -- -- 70
2021-01-04 10:00:00 -4.6 22 Noroeste 34 Noroeste 0 -- -- 78
2021-01-04 09:00:00 -4.8 19 Noroeste 35 Noroeste 0 -- -- 79
2021-01-04 08:00:00 -4.6 22 Noroeste 36 Noroeste 0 -- -- 77
2021-01-04 07:00:00 -4.3 22 Noroeste 33 Noroeste 0 -- -- 78
2021-01-04 06:00:00 -4 20 Noroeste 31 Noroeste 0 -- -- 77
2021-01-04 05:00:00 -3.6 18 Noroeste 31 Noroeste 0 -- -- 76
2021-01-04 04:00:00 -3.2 19 Noroeste 29 Noroeste 0 -- -- 74
2021-01-04 03:00:00 -3.1 15 Noroeste 33 Noroeste 0 -- -- 73
2021-01-04 02:00:00 -3.1 27 Noroeste 37 Oeste 0 -- -- 71
2021-01-04 01:00:00 -2.6 22 Noroeste 32 Noroeste 0 -- -- 72
2021-01-04 00:00:00 -2.1 19 Noroeste 31 Noroeste 0 -- -- 71
2021-01-03 23:00:00 -1.4 13 Noroeste 28 Noroeste 0 -- -- 69
2021-01-03 22:00:00 -0.8 19 Noroeste 30 Noroeste 0 -- -- 66
2021-01-03 21:00:00 -0.2 15 Noroeste 29 Noroeste 0 -- -- 66
2021-01-03 20:00:00 0.8 19 Noroeste 27 Noroeste 0 -- -- 62
2021-01-03 19:00:00 1.5 14 Noroeste 22 Noroeste 0 -- -- 60
2021-01-03 18:00:00 2.7 5 Este 10 Este 0 -- -- 50
2021-01-03 17:00:00 4.7 4 Sur 15 Sur 0 -- -- 42
2021-01-03 16:00:00 6.6 12 Sur 18 Sudoeste 0 -- -- 36
2021-01-03 15:00:00 7.2 4 Sudeste 14 Sur 0 -- -- 33
2021-01-03 14:00:00 7.3 8 Sur 15 Sur 0 -- -- 29
2021-01-03 13:00:00 6 6 Sudeste 10 Sudeste 0 -- -- 31
2021-01-03 12:00:00 4.8 6 Sudeste 9 Nordeste 0 -- -- 35
2021-01-03 11:00:00 0.9 5 Sudeste 8 Sur 0 -- -- 45
2021-01-03 10:00:00 -3.3 2 Sudeste 12 Sur 0 -- -- 57
2021-01-03 09:00:00 -2.5 3 Sur 8 Sudeste 0 -- -- 51
2021-01-03 08:00:00 -2 3 Sur 8 Sudoeste 0 -- -- 50
2021-01-03 07:00:00 -0.9 5 Sur 45 Noroeste 0 -- -- 45
2021-01-03 06:00:00 2.6 23 Noroeste 55 Noroeste 0 -- -- 31
2021-01-03 05:00:00 2.1 8 Nordeste 52 Noroeste 0 -- -- 33
2021-01-03 04:00:00 2 22 Noroeste 63 Noroeste 0 -- -- 34
2021-01-03 03:00:00 1.4 23 Norte 62 Noroeste 0 -- -- 35
2021-01-03 02:00:00 1.5 26 Noroeste 51 Noroeste 0 -- -- 31
2021-01-03 01:00:00 1.5 14 Noroeste 33 Noroeste 0 -- -- 30
2021-01-03 00:00:00 1.4 6 Nordeste 24 Noroeste 0 -- -- 32
2021-01-02 23:00:00 2 6 Norte 20 Noroeste 0 -- -- 31
2021-01-02 22:00:00 1.1 2 Este 6 Este 0 -- -- 39
2021-01-02 21:00:00 1.7 2 Sudoeste 11 Nordeste 0 -- -- 39
2021-01-02 20:00:00 2.8 4 Norte 12 Noroeste 0 -- -- 34
2021-01-02 19:00:00 3.6 11 Noroeste 35 Noroeste 0 -- -- 26
2021-01-02 18:00:00 3.7 12 Oeste 39 Oeste 0 -- -- 27
2021-01-02 17:00:00 4.5 17 Oeste 40 Noroeste 0 -- -- 26
2021-01-02 16:00:00 5.2 14 Noroeste 42 Noroeste 0 -- -- 24
2021-01-02 15:00:00 5.3 18 Noroeste 45 Noroeste 0 -- -- 27
2021-01-02 14:00:00 4.5 10 Norte 35 Noroeste 0 -- -- 35